sensor_id;sensor_type;location;lat;lon;timestamp;P1;P2;P0
74436;PMS7003;62868;52.360;30.424;2024-02-14T00:04:45;0;0;0
74436;PMS7003;62868;52.360;30.424;2024-02-14T00:09:35;0;0;0
74436;PMS7003;62868;52.360;30.424;2024-02-14T00:14:27;0;0;0
74436;PMS7003;62868;52.360;30.424;2024-02-14T00:19:45;0;0;0
74436;PMS7003;62868;52.360;30.424;2024-02-14T00:24:45;0.3;0;0
74436;PMS7003;62868;52.360;30.424;2024-02-14T00:29:37;0;0;0
74436;PMS7003;62868;52.360;30.424;2024-02-14T00:34:15;0;0;0
74436;PMS7003;62868;52.360;30.424;2024-02-14T00:39:07;0;0;0
74436;PMS7003;62868;52.360;30.424;2024-02-14T00:44:07;0;0;0
74436;PMS7003;62868;52.360;30.424;2024-02-14T00:49:07;0;0;0
74436;PMS7003;62868;52.360;30.424;2024-02-14T00:54:07;0;0;0
74436;PMS7003;62868;52.360;30.424;2024-02-14T00:59:07;0.3;0;0
74436;PMS7003;62868;52.360;30.424;2024-02-14T01:04:31;0;0;0
74436;PMS7003;62868;52.360;30.424;2024-02-14T01:09:09;0;0;0
74436;PMS7003;62868;52.360;30.424;2024-02-14T01:14:45;0.3;0;0
74436;PMS7003;62868;52.360;30.424;2024-02-14T01:19:37;0;0;0
74436;PMS7003;62868;52.360;30.424;2024-02-14T01:24:09;0.3;0;0
74436;PMS7003;62868;52.360;30.424;2024-02-14T01:29:15;0;0;0
74436;PMS7003;62868;52.360;30.424;2024-02-14T01:34:31;0.3;0;0
74436;PMS7003;62868;52.360;30.424;2024-02-14T01:39:27;0;0;0
74436;PMS7003;62868;52.360;30.424;2024-02-14T01:44:21;0;0;0
74436;PMS7003;62868;52.360;30.424;2024-02-14T01:49:07;0;0;0
74436;PMS7003;62868;52.360;30.424;2024-02-14T01:54:37;0.3;0;0
74436;PMS7003;62868;52.360;30.424;2024-02-14T01:59:45;0;0;0
74436;PMS7003;62868;52.360;30.424;2024-02-14T02:04:19;0.3;0;0
74436;PMS7003;62868;52.360;30.424;2024-02-14T02:09:27;0;0;0
74436;PMS7003;62868;52.360;30.424;2024-02-14T02:14:16;0;0;0
74436;PMS7003;62868;52.360;30.424;2024-02-14T02:19:15;0;0;0
74436;PMS7003;62868;52.360;30.424;2024-02-14T02:24:07;0;0;0
74436;PMS7003;62868;52.360;30.424;2024-02-14T02:29:13;0;0;0
74436;PMS7003;62868;52.360;30.424;2024-02-14T02:34:44;0;0;0
74436;PMS7003;62868;52.360;30.424;2024-02-14T02:39:45;0;0;0
74436;PMS7003;62868;52.360;30.424;2024-02-14T02:44:23;0;0;0
74436;PMS7003;62868;52.360;30.424;2024-02-14T02:49:46;0;0;0
74436;PMS7003;62868;52.360;30.424;2024-02-14T02:54:38;0;0;0
74436;PMS7003;62868;52.360;30.424;2024-02-14T02:59:31;0;0;0
74436;PMS7003;62868;52.360;30.424;2024-02-14T03:04:07;0;0;0
74436;PMS7003;62868;52.360;30.424;2024-02-14T03:09:46;0;0;0
74436;PMS7003;62868;52.360;30.424;2024-02-14T03:14:35;0;0;0
74436;PMS7003;62868;52.360;30.424;2024-02-14T03:19:21;0;0;0
74436;PMS7003;62868;52.360;30.424;2024-02-14T03:24:08;0.3;0;0
74436;PMS7003;62868;52.360;30.424;2024-02-14T03:29:37;0;0;0
74436;PMS7003;62868;52.360;30.424;2024-02-14T03:34:45;0.3;0;0
74436;PMS7003;62868;52.360;30.424;2024-02-14T03:39:08;0;0;0
74436;PMS7003;62868;52.360;30.424;2024-02-14T03:44:35;0;0;0
74436;PMS7003;62868;52.360;30.424;2024-02-14T03:49:07;0;0;0
74436;PMS7003;62868;52.360;30.424;2024-02-14T03:54:07;0;0;0
74436;PMS7003;62868;52.360;30.424;2024-02-14T03:59:07;0.7;0;0
74436;PMS7003;62868;52.360;30.424;2024-02-14T04:04:08;0.3;0;0
74436;PMS7003;62868;52.360;30.424;2024-02-14T04:09:36;0;0;0
74436;PMS7003;62868;52.360;30.424;2024-02-14T04:14:38;0;0;0
74436;PMS7003;62868;52.360;30.424;2024-02-14T04:19:36;0;0;0
74436;PMS7003;62868;52.360;30.424;2024-02-14T04:24:44;0.3;0;0
74436;PMS7003;62868;52.360;30.424;2024-02-14T04:29:46;0;0;0
74436;PMS7003;62868;52.360;30.424;2024-02-14T04:34:16;0;0;0
74436;PMS7003;62868;52.360;30.424;2024-02-14T04:39:46;0.3;0;0
74436;PMS7003;62868;52.360;30.424;2024-02-14T04:44:46;0;0;0
74436;PMS7003;62868;52.360;30.424;2024-02-14T04:49:36;0.3;0.3;0
74436;PMS7003;62868;52.360;30.424;2024-02-14T04:54:08;2.3;1;0.7
74436;PMS7003;62868;52.360;30.424;2024-02-14T04:59:32;2.3;1.5;1
74436;PMS7003;62868;52.360;30.424;2024-02-14T05:04:38;2;1;0.7
74436;PMS7003;62868;52.360;30.424;2024-02-14T05:09:46;1;1;0.3
74436;PMS7003;62868;52.360;30.424;2024-02-14T05:14:37;1.7;0.7;0.7
74436;PMS7003;62868;52.360;30.424;2024-02-14T05:19:44;1.3;0.8;0.5
74436;PMS7003;62868;52.360;30.424;2024-02-14T05:24:20;0;0;0
74436;PMS7003;62868;52.360;30.424;2024-02-14T05:29:16;0.3;0;0
74436;PMS7003;62868;52.360;30.424;2024-02-14T05:34:16;0.7;0;0
74436;PMS7003;62868;52.360;30.424;2024-02-14T05:39:16;0;0;0
74436;PMS7003;62868;52.360;30.424;2024-02-14T05:44:08;0;0;0
74436;PMS7003;62868;52.360;30.424;2024-02-14T05:49:16;0;0;0
74436;PMS7003;62868;52.360;30.424;2024-02-14T05:54:46;0.7;0.3;0
74436;PMS7003;62868;52.360;30.424;2024-02-14T05:59:08;1.3;0.8;0
74436;PMS7003;62868;52.360;30.424;2024-02-14T06:04:44;1.3;0.3;0
74436;PMS7003;62868;52.360;30.424;2024-02-14T06:09:30;2;1;0.3
74436;PMS7003;62868;52.360;30.424;2024-02-14T06:14:47;1.7;1;1
74436;PMS7003;62868;52.360;30.424;2024-02-14T06:19:22;2;1.3;0.5
74436;PMS7003;62868;52.360;30.424;2024-02-14T06:24:10;1.3;0.7;0.7
74436;PMS7003;62868;52.360;30.424;2024-02-14T06:29:22;1.7;1;0
74436;PMS7003;62868;52.360;30.424;2024-02-14T06:34:10;0.7;0.7;0.3
74436;PMS7003;62868;52.360;30.424;2024-02-14T06:39:46;0.5;0.3;0
74436;PMS7003;62868;52.360;30.424;2024-02-14T06:44:30;0;0;0
74436;PMS7003;62868;52.360;30.424;2024-02-14T06:49:38;0.3;0.3;0.3
74436;PMS7003;62868;52.360;30.424;2024-02-14T06:54:46;0.5;0;0
74436;PMS7003;62868;52.360;30.424;2024-02-14T06:59:46;0.3;0;0
74436;PMS7003;62868;52.360;30.424;2024-02-14T07:04:14;0;0;0
74436;PMS7003;62868;52.360;30.424;2024-02-14T07:09:16;1;0.7;0.3
74436;PMS7003;62868;52.360;30.424;2024-02-14T07:14:08;1.8;1;0.3
74436;PMS7003;62868;52.360;30.424;2024-02-14T07:19:28;1;0.7;0.7
74436;PMS7003;62868;52.360;30.424;2024-02-14T07:24:08;1.7;1;0.3
74436;PMS7003;62868;52.360;30.424;2024-02-14T07:29:38;0.3;0;0
74436;PMS7003;62868;52.360;30.424;2024-02-14T07:34:08;0.8;0;0
74436;PMS7003;62868;52.360;30.424;2024-02-14T07:39:47;0.7;0;0
74436;PMS7003;62868;52.360;30.424;2024-02-14T07:44:16;0.3;0;0
74436;PMS7003;62868;52.360;30.424;2024-02-14T07:49:46;0.3;0;0
74436;PMS7003;62868;52.360;30.424;2024-02-14T07:54:09;0.5;0;0
74436;PMS7003;62868;52.360;30.424;2024-02-14T07:59:28;1;0;0
74436;PMS7003;62868;52.360;30.424;2024-02-14T08:04:08;0.7;0.3;0
74436;PMS7003;62868;52.360;30.424;2024-02-14T08:09:32;0;0;0
74436;PMS7003;62868;52.360;30.424;2024-02-14T08:14:46;0.5;0.3;0
74436;PMS7003;62868;52.360;30.424;2024-02-14T08:19:46;0.3;0;0
74436;PMS7003;62868;52.360;30.424;2024-02-14T08:24:28;1;0.3;0
74436;PMS7003;62868;52.360;30.424;2024-02-14T08:29:46;1.7;0.7;0.7
74436;PMS7003;62868;52.360;30.424;2024-02-14T08:34:46;0.5;0.3;0.3
74436;PMS7003;62868;52.360;30.424;2024-02-14T08:39:38;0;0;0
74436;PMS7003;62868;52.360;30.424;2024-02-14T08:44:28;0.3;0;0
74436;PMS7003;62868;52.360;30.424;2024-02-14T08:49:16;0.3;0;0
74436;PMS7003;62868;52.360;30.424;2024-02-14T08:54:08;0;0;0
74436;PMS7003;62868;52.360;30.424;2024-02-14T08:59:08;0;0;0
74436;PMS7003;62868;52.360;30.424;2024-02-14T09:04:08;0.3;0;0
74436;PMS7003;62868;52.360;30.424;2024-02-14T09:09:24;0.8;0.3;0
74436;PMS7003;62868;52.360;30.424;2024-02-14T09:14:18;0.7;0;0
74436;PMS7003;62868;52.360;30.424;2024-02-14T09:19:24;1.3;1.3;0.7
74436;PMS7003;62868;52.360;30.424;2024-02-14T09:24:46;0;0;0
74436;PMS7003;62868;52.360;30.424;2024-02-14T09:29:38;1;0.3;0
74436;PMS7003;62868;52.360;30.424;2024-02-14T09:34:30;0.3;0;0
74436;PMS7003;62868;52.360;30.424;2024-02-14T09:39:16;0.3;0;0
74436;PMS7003;62868;52.360;30.424;2024-02-14T09:44:10;0.3;0;0
74436;PMS7003;62868;52.360;30.424;2024-02-14T09:49:36;0.8;0.5;0.3
74436;PMS7003;62868;52.360;30.424;2024-02-14T09:54:16;0.7;0;0
74436;PMS7003;62868;52.360;30.424;2024-02-14T09:59:28;0.7;0.3;0
74436;PMS7003;62868;52.360;30.424;2024-02-14T10:04:38;0.7;0.3;0
74436;PMS7003;62868;52.360;30.424;2024-02-14T10:09:46;0.3;0.3;0
74436;PMS7003;62868;52.360;30.424;2024-02-14T10:14:16;0;0;0
74436;PMS7003;62868;52.360;30.424;2024-02-14T10:19:36;0.7;0;0
74436;PMS7003;62868;52.360;30.424;2024-02-14T10:24:08;1.3;0;0
74436;PMS7003;62868;52.360;30.424;2024-02-14T10:29:30;0.3;0;0
74436;PMS7003;62868;52.360;30.424;2024-02-14T10:34:23;0.7;0.3;0.3
74436;PMS7003;62868;52.360;30.424;2024-02-14T10:39:14;0;0;0
74436;PMS7003;62868;52.360;30.424;2024-02-14T10:44:16;0;0;0
74436;PMS7003;62868;52.360;30.424;2024-02-14T10:49:46;0.3;0;0
74436;PMS7003;62868;52.360;30.424;2024-02-14T10:54:38;0.7;0.7;0
74436;PMS7003;62868;52.360;30.424;2024-02-14T10:59:46;0.7;0;0
74436;PMS7003;62868;52.360;30.424;2024-02-14T11:04:47;0;0;0
74436;PMS7003;62868;52.360;30.424;2024-02-14T11:09:08;0;0;0
74436;PMS7003;62868;52.360;30.424;2024-02-14T11:14:46;0.3;0;0
74436;PMS7003;62868;52.360;30.424;2024-02-14T11:19:46;0;0;0
74436;PMS7003;62868;52.360;30.424;2024-02-14T11:24:46;0;0;0
74436;PMS7003;62868;52.360;30.424;2024-02-14T11:29:16;1;0;0
74436;PMS7003;62868;52.360;30.424;2024-02-14T11:34:08;0;0;0
74436;PMS7003;62868;52.360;30.424;2024-02-14T11:39:38;0.3;0;0
74436;PMS7003;62868;52.360;30.424;2024-02-14T11:44:46;0;0;0
74436;PMS7003;62868;52.360;30.424;2024-02-14T11:49:16;5.7;3.7;1.3
74436;PMS7003;62868;52.360;30.424;2024-02-14T11:54:36;13.7;10.7;5
74436;PMS7003;62868;52.360;30.424;2024-02-14T11:59:48;10.3;7.3;4.3
74436;PMS7003;62868;52.360;30.424;2024-02-14T12:04:09;4.5;3.3;2
74436;PMS7003;62868;52.360;30.424;2024-02-14T12:09:20;6;5.7;3.3
74436;PMS7003;62868;52.360;30.424;2024-02-14T12:14:18;6;5;3.3
74436;PMS7003;62868;52.360;30.424;2024-02-14T12:19:08;5;3.7;2.7
74436;PMS7003;62868;52.360;30.424;2024-02-14T12:24:46;6;5;3.3
74436;PMS7003;62868;52.360;30.424;2024-02-14T12:29:38;3.7;2;1.7
74436;PMS7003;62868;52.360;30.424;2024-02-14T12:34:46;1.3;1;0.7
74436;PMS7003;62868;52.360;30.424;2024-02-14T12:39:46;1;0.5;0
74436;PMS7003;62868;52.360;30.424;2024-02-14T12:44:24;1;1;0.3
74436;PMS7003;62868;52.360;30.424;2024-02-14T12:49:46;0.7;0.3;0
74436;PMS7003;62868;52.360;30.424;2024-02-14T12:54:38;0;0;0
74436;PMS7003;62868;52.360;30.424;2024-02-14T12:59:14;0;0;0
74436;PMS7003;62868;52.360;30.424;2024-02-14T13:04:16;0.7;0.3;0
74436;PMS7003;62868;52.360;30.424;2024-02-14T13:09:30;1;0;0
74436;PMS7003;62868;52.360;30.424;2024-02-14T13:14:39;0.3;0;0
74436;PMS7003;62868;52.360;30.424;2024-02-14T13:19:46;0;0;0
74436;PMS7003;62868;52.360;30.424;2024-02-14T13:24:28;0;0;0
74436;PMS7003;62868;52.360;30.424;2024-02-14T13:29:46;0;0;0
74436;PMS7003;62868;52.360;30.424;2024-02-14T13:34:28;0;0;0
74436;PMS7003;62868;52.360;30.424;2024-02-14T13:39:08;0.3;0;0
74436;PMS7003;62868;52.360;30.424;2024-02-14T13:44:20;0.7;0.3;0
74436;PMS7003;62868;52.360;30.424;2024-02-14T13:49:08;0;0;0
74436;PMS7003;62868;52.360;30.424;2024-02-14T13:54:20;0.3;0;0
74436;PMS7003;62868;52.360;30.424;2024-02-14T13:59:16;0;0;0
74436;PMS7003;62868;52.360;30.424;2024-02-14T14:04:38;0;0;0
74436;PMS7003;62868;52.360;30.424;2024-02-14T14:09:08;0;0;0
74436;PMS7003;62868;52.360;30.424;2024-02-14T14:14:46;0;0;0
74436;PMS7003;62868;52.360;30.424;2024-02-14T14:19:24;0;0;0
74436;PMS7003;62868;52.360;30.424;2024-02-14T14:24:46;0;0;0
74436;PMS7003;62868;52.360;30.424;2024-02-14T14:29:32;0.3;0;0
74436;PMS7003;62868;52.360;30.424;2024-02-14T14:34:40;0.3;0;0
74436;PMS7003;62868;52.360;30.424;2024-02-14T14:39:08;0;0;0
74436;PMS7003;62868;52.360;30.424;2024-02-14T14:44:32;0;0;0
74436;PMS7003;62868;52.360;30.424;2024-02-14T14:49:44;0.3;0;0
74436;PMS7003;62868;52.360;30.424;2024-02-14T14:54:10;0.5;0;0
74436;PMS7003;62868;52.360;30.424;2024-02-14T14:59:08;1.3;0;0
74436;PMS7003;62868;52.360;30.424;2024-02-14T15:04:38;0.3;0;0
74436;PMS7003;62868;52.360;30.424;2024-02-14T15:09:46;0;0;0
74436;PMS7003;62868;52.360;30.424;2024-02-14T15:14:38;0;0;0
74436;PMS7003;62868;52.360;30.424;2024-02-14T15:19:20;0;0;0
74436;PMS7003;62868;52.360;30.424;2024-02-14T15:24:16;0;0;0
74436;PMS7003;62868;52.360;30.424;2024-02-14T15:29:16;0.3;0;0
74436;PMS7003;62868;52.360;30.424;2024-02-14T15:34:24;0;0;0
74436;PMS7003;62868;52.360;30.424;2024-02-14T15:39:38;0;0;0
74436;PMS7003;62868;52.360;30.424;2024-02-14T15:44:24;0;0;0
74436;PMS7003;62868;52.360;30.424;2024-02-14T15:49:32;0;0;0
74436;PMS7003;62868;52.360;30.424;2024-02-14T15:54:24;0;0;0
74436;PMS7003;62868;52.360;30.424;2024-02-14T15:59:44;0;0;0
74436;PMS7003;62868;52.360;30.424;2024-02-14T16:04:38;0;0;0
74436;PMS7003;62868;52.360;30.424;2024-02-14T16:09:46;0;0;0
74436;PMS7003;62868;52.360;30.424;2024-02-14T16:14:20;0;0;0
74436;PMS7003;62868;52.360;30.424;2024-02-14T16:19:28;0.3;0;0
74436;PMS7003;62868;52.360;30.424;2024-02-14T16:24:42;1.3;0.7;0
74436;PMS7003;62868;52.360;30.424;2024-02-14T16:29:08;0.5;0.3;0.3
74436;PMS7003;62868;52.360;30.424;2024-02-14T16:34:26;0.7;0.3;0
74436;PMS7003;62868;52.360;30.424;2024-02-14T16:39:34;1;0;0
74436;PMS7003;62868;52.360;30.424;2024-02-14T16:49:26;0.5;0.3;0.3
74436;PMS7003;62868;52.360;30.424;2024-02-14T16:54:16;0.7;0.3;0
74436;PMS7003;62868;52.360;30.424;2024-02-14T16:59:08;1.3;0.3;0
74436;PMS7003;62868;52.360;30.424;2024-02-14T17:04:08;0.3;0;0
74436;PMS7003;62868;52.360;30.424;2024-02-14T17:09:47;0.3;0;0
74436;PMS7003;62868;52.360;30.424;2024-02-14T17:14:44;0.3;0;0
74436;PMS7003;62868;52.360;30.424;2024-02-14T17:19:08;0.3;0;0
74436;PMS7003;62868;52.360;30.424;2024-02-14T17:24:44;0;0;0
74436;PMS7003;62868;52.360;30.424;2024-02-14T17:29:36;0.5;0;0
74436;PMS7003;62868;52.360;30.424;2024-02-14T17:34:33;1;0;0
74436;PMS7003;62868;52.360;30.424;2024-02-14T17:39:44;0;0;0
74436;PMS7003;62868;52.360;30.424;2024-02-14T17:44:24;0;0;0
74436;PMS7003;62868;52.360;30.424;2024-02-14T17:49:46;0;0;0
74436;PMS7003;62868;52.360;30.424;2024-02-14T17:54:46;0.3;0;0
74436;PMS7003;62868;52.360;30.424;2024-02-14T17:59:36;1;0;0
74436;PMS7003;62868;52.360;30.424;2024-02-14T18:04:08;0.7;0.3;0
74436;PMS7003;62868;52.360;30.424;2024-02-14T18:09:32;0;0;0
74436;PMS7003;62868;52.360;30.424;2024-02-14T18:14:38;0.3;0;0
74436;PMS7003;62868;52.360;30.424;2024-02-14T18:19:44;0;0;0
74436;PMS7003;62868;52.360;30.424;2024-02-14T18:24:20;0;0;0
74436;PMS7003;62868;52.360;30.424;2024-02-14T18:29:44;0;0;0
74436;PMS7003;62868;52.360;30.424;2024-02-14T18:34:26;0;0;0
74436;PMS7003;62868;52.360;30.424;2024-02-14T18:39:08;0.3;0;0
74436;PMS7003;62868;52.360;30.424;2024-02-14T18:44:08;0;0;0
74436;PMS7003;62868;52.360;30.424;2024-02-14T18:49:22;0.3;0;0
74436;PMS7003;62868;52.360;30.424;2024-02-14T18:54:16;0;0;0
74436;PMS7003;62868;52.360;30.424;2024-02-14T18:59:08;0;0;0
74436;PMS7003;62868;52.360;30.424;2024-02-14T19:04:30;0.3;0;0
74436;PMS7003;62868;52.360;30.424;2024-02-14T19:09:16;0;0;0
74436;PMS7003;62868;52.360;30.424;2024-02-14T19:14:46;0;0;0
74436;PMS7003;62868;52.360;30.424;2024-02-14T19:19:24;0;0;0
74436;PMS7003;62868;52.360;30.424;2024-02-14T19:24:46;0;0;0
74436;PMS7003;62868;52.360;30.424;2024-02-14T19:29:32;0;0;0
74436;PMS7003;62868;52.360;30.424;2024-02-14T19:34:18;0;0;0
74436;PMS7003;62868;52.360;30.424;2024-02-14T19:39:14;0;0;0
74436;PMS7003;62868;52.360;30.424;2024-02-14T19:44:32;0;0;0
74436;PMS7003;62868;52.360;30.424;2024-02-14T19:49:46;0.3;0;0
74436;PMS7003;62868;52.360;30.424;2024-02-14T19:54:36;0;0;0
74436;PMS7003;62868;52.360;30.424;2024-02-14T19:59:16;0;0;0
74436;PMS7003;62868;52.360;30.424;2024-02-14T20:04:47;0.3;0;0
74436;PMS7003;62868;52.360;30.424;2024-02-14T20:09:46;0;0;0
74436;PMS7003;62868;52.360;30.424;2024-02-14T20:14:16;0;0;0
74436;PMS7003;62868;52.360;30.424;2024-02-14T20:19:08;0;0;0
74436;PMS7003;62868;52.360;30.424;2024-02-14T20:24:16;0;0;0
74436;PMS7003;62868;52.360;30.424;2024-02-14T20:29:38;0;0;0
74436;PMS7003;62868;52.360;30.424;2024-02-14T20:34:46;0.3;0;0
74436;PMS7003;62868;52.360;30.424;2024-02-14T20:39:36;0;0;0
74436;PMS7003;62868;52.360;30.424;2024-02-14T20:44:24;0;0;0
74436;PMS7003;62868;52.360;30.424;2024-02-14T20:49:46;0;0;0
74436;PMS7003;62868;52.360;30.424;2024-02-14T20:54:24;0;0;0
74436;PMS7003;62868;52.360;30.424;2024-02-14T20:59:46;0;0;0
74436;PMS7003;62868;52.360;30.424;2024-02-14T21:04:22;0.3;0;0
74436;PMS7003;62868;52.360;30.424;2024-02-14T21:09:10;0;0;0
74436;PMS7003;62868;52.360;30.424;2024-02-14T21:14:16;0;0;0
74436;PMS7003;62868;52.360;30.424;2024-02-14T21:19:46;0;0;0
74436;PMS7003;62868;52.360;30.424;2024-02-14T21:24:46;0;0;0
74436;PMS7003;62868;52.360;30.424;2024-02-14T21:29:46;0;0;0
74436;PMS7003;62868;52.360;30.424;2024-02-14T21:34:29;0;0;0
74436;PMS7003;62868;52.360;30.424;2024-02-14T21:39:46;0;0;0
74436;PMS7003;62868;52.360;30.424;2024-02-14T21:44:46;0;0;0
74436;PMS7003;62868;52.360;30.424;2024-02-14T21:49:38;0;0;0
74436;PMS7003;62868;52.360;30.424;2024-02-14T21:54:08;0;0;0
74436;PMS7003;62868;52.360;30.424;2024-02-14T21:59:16;0;0;0
74436;PMS7003;62868;52.360;30.424;2024-02-14T22:04:14;0;0;0
74436;PMS7003;62868;52.360;30.424;2024-02-14T22:09:08;0;0;0
74436;PMS7003;62868;52.360;30.424;2024-02-14T22:14:08;0.3;0;0
74436;PMS7003;62868;52.360;30.424;2024-02-14T22:19:30;0;0;0
74436;PMS7003;62868;52.360;30.424;2024-02-14T22:24:32;0;0;0
74436;PMS7003;62868;52.360;30.424;2024-02-14T22:29:24;0;0;0
74436;PMS7003;62868;52.360;30.424;2024-02-14T22:34:46;0;0;0
74436;PMS7003;62868;52.360;30.424;2024-02-14T22:39:38;0;0;0
74436;PMS7003;62868;52.360;30.424;2024-02-14T22:44:10;0;0;0
74436;PMS7003;62868;52.360;30.424;2024-02-14T22:49:10;0;0;0
74436;PMS7003;62868;52.360;30.424;2024-02-14T22:54:24;0;0;0
74436;PMS7003;62868;52.360;30.424;2024-02-14T22:59:30;0;0;0
74436;PMS7003;62868;52.360;30.424;2024-02-14T23:04:22;0.3;0;0
74436;PMS7003;62868;52.360;30.424;2024-02-14T23:09:08;0;0;0
74436;PMS7003;62868;52.360;30.424;2024-02-14T23:14:38;0;0;0
74436;PMS7003;62868;52.360;30.424;2024-02-14T23:19:46;0;0;0
74436;PMS7003;62868;52.360;30.424;2024-02-14T23:24:46;0;0;0
74436;PMS7003;62868;52.360;30.424;2024-02-14T23:29:36;0;0;0
74436;PMS7003;62868;52.360;30.424;2024-02-14T23:34:16;0;0;0
74436;PMS7003;62868;52.360;30.424;2024-02-14T23:39:16;0.3;0;0
74436;PMS7003;62868;52.360;30.424;2024-02-14T23:44:28;0;0;0
74436;PMS7003;62868;52.360;30.424;2024-02-14T23:49:08;0;0;0
74436;PMS7003;62868;52.360;30.424;2024-02-14T23:54:16;0.3;0;0
74436;PMS7003;62868;52.360;30.424;2024-02-14T23:59:16;0;0;0
